sensor_id;sensor_type;location;lat;lon;timestamp;pressure;altitude;pressure_sealevel;temperature;humidity
76794;BME280;65745;50.278;18.192;2023-03-01T00:01:28;101022.81;;;-2.09;65.05
76794;BME280;65745;50.278;18.192;2023-03-01T00:04:01;101025.40;;;-2.09;64.28
76794;BME280;65745;50.278;18.192;2023-03-01T00:06:33;101023.74;;;-2.04;63.81
76794;BME280;65745;50.278;18.192;2023-03-01T00:09:06;101023.99;;;-2.11;64.84
76794;BME280;65745;50.278;18.192;2023-03-01T00:11:38;101025.27;;;-2.18;64.41
76794;BME280;65745;50.278;18.192;2023-03-01T00:14:11;101029.64;;;-2.24;64.41
76794;BME280;65745;50.278;18.192;2023-03-01T00:16:44;101032.58;;;-2.29;64.54
76794;BME280;65745;50.278;18.192;2023-03-01T00:19:19;101036.33;;;-2.34;64.61
76794;BME280;65745;50.278;18.192;2023-03-01T00:21:53;101037.91;;;-2.39;64.70
76794;BME280;65745;50.278;18.192;2023-03-01T00:24:26;101036.52;;;-2.41;64.15
76794;BME280;65745;50.278;18.192;2023-03-01T00:26:59;101031.88;;;-2.53;65.01
76794;BME280;65745;50.278;18.192;2023-03-01T00:29:31;101032.76;;;-2.64;65.04
76794;BME280;65745;50.278;18.192;2023-03-01T00:32:04;101027.19;;;-2.68;65.17
76794;BME280;65745;50.278;18.192;2023-03-01T00:34:37;101026.19;;;-2.62;65.64
76794;BME280;65745;50.278;18.192;2023-03-01T00:37:10;101022.56;;;-2.50;66.33
76794;BME280;65745;50.278;18.192;2023-03-01T00:39:43;101023.52;;;-2.40;66.66
76794;BME280;65745;50.278;18.192;2023-03-01T00:42:16;101023.64;;;-2.38;66.60
76794;BME280;65745;50.278;18.192;2023-03-01T00:44:49;101021.02;;;-2.34;66.16
76794;BME280;65745;50.278;18.192;2023-03-01T00:47:21;101024.48;;;-2.38;66.58
76794;BME280;65745;50.278;18.192;2023-03-01T00:49:54;101027.16;;;-2.42;65.80
76794;BME280;65745;50.278;18.192;2023-03-01T00:52:26;101024.55;;;-2.43;65.61
76794;BME280;65745;50.278;18.192;2023-03-01T00:54:59;101013.17;;;-2.42;65.63
76794;BME280;65745;50.278;18.192;2023-03-01T00:57:31;101008.75;;;-2.54;66.00
76794;BME280;65745;50.278;18.192;2023-03-01T01:00:06;101011.67;;;-2.61;66.04
76794;BME280;65745;50.278;18.192;2023-03-01T01:02:40;101011.56;;;-2.75;69.23
76794;BME280;65745;50.278;18.192;2023-03-01T01:05:13;101012.16;;;-2.81;67.23
76794;BME280;65745;50.278;18.192;2023-03-01T01:07:51;101014.30;;;-2.82;70.12
76794;BME280;65745;50.278;18.192;2023-03-01T01:10:24;101018.08;;;-2.77;67.61
76794;BME280;65745;50.278;18.192;2023-03-01T01:12:56;101013.65;;;-2.72;66.23
76794;BME280;65745;50.278;18.192;2023-03-01T01:15:29;101018.50;;;-2.71;66.85
76794;BME280;65745;50.278;18.192;2023-03-01T01:18:01;101016.19;;;-2.72;66.84
76794;BME280;65745;50.278;18.192;2023-03-01T01:20:34;101020.33;;;-2.73;67.28
76794;BME280;65745;50.278;18.192;2023-03-01T01:23:08;101022.05;;;-2.76;67.64
76794;BME280;65745;50.278;18.192;2023-03-01T01:25:40;101014.56;;;-2.75;66.23
76794;BME280;65745;50.278;18.192;2023-03-01T01:28:13;101009.68;;;-2.70;66.11
76794;BME280;65745;50.278;18.192;2023-03-01T01:30:46;101005.73;;;-2.61;66.90
76794;BME280;65745;50.278;18.192;2023-03-01T01:33:18;101013.30;;;-2.52;67.37
76794;BME280;65745;50.278;18.192;2023-03-01T01:35:51;101012.79;;;-2.46;68.79
76794;BME280;65745;50.278;18.192;2023-03-01T01:38:24;101017.61;;;-2.59;68.34
76794;BME280;65745;50.278;18.192;2023-03-01T01:40:56;101012.08;;;-2.52;67.47
76794;BME280;65745;50.278;18.192;2023-03-01T01:43:32;101011.80;;;-2.44;67.27
76794;BME280;65745;50.278;18.192;2023-03-01T01:46:04;101003.60;;;-2.45;66.86
76794;BME280;65745;50.278;18.192;2023-03-01T01:48:41;100999.36;;;-2.43;66.37
76794;BME280;65745;50.278;18.192;2023-03-01T01:51:13;100993.67;;;-2.41;65.78
76794;BME280;65745;50.278;18.192;2023-03-01T01:53:49;100996.16;;;-2.44;65.65
76794;BME280;65745;50.278;18.192;2023-03-01T01:56:24;100993.23;;;-2.54;66.28
76794;BME280;65745;50.278;18.192;2023-03-01T01:58:58;100993.19;;;-2.60;66.21
76794;BME280;65745;50.278;18.192;2023-03-01T02:01:31;100987.38;;;-2.63;66.19
76794;BME280;65745;50.278;18.192;2023-03-01T02:04:03;100981.89;;;-2.69;65.98
76794;BME280;65745;50.278;18.192;2023-03-01T02:06:39;100977.47;;;-2.77;66.27
76794;BME280;65745;50.278;18.192;2023-03-01T02:09:12;100975.06;;;-2.83;66.16
76794;BME280;65745;50.278;18.192;2023-03-01T02:11:45;100973.04;;;-2.85;67.07
76794;BME280;65745;50.278;18.192;2023-03-01T02:14:19;100969.89;;;-2.88;66.64
76794;BME280;65745;50.278;18.192;2023-03-01T02:16:51;100964.92;;;-2.97;67.14
76794;BME280;65745;50.278;18.192;2023-03-01T02:19:34;100965.48;;;-3.07;66.50
76794;BME280;65745;50.278;18.192;2023-03-01T02:22:16;100960.95;;;-3.09;66.74
76794;BME280;65745;50.278;18.192;2023-03-01T02:25:00;100958.25;;;-3.15;66.40
76794;BME280;65745;50.278;18.192;2023-03-01T02:27:43;100959.23;;;-3.17;66.49
76794;BME280;65745;50.278;18.192;2023-03-01T02:30:19;100956.27;;;-3.16;66.98
76794;BME280;65745;50.278;18.192;2023-03-01T02:32:53;100956.63;;;-3.12;67.27
76794;BME280;65745;50.278;18.192;2023-03-01T02:35:35;100954.45;;;-2.97;67.60
76794;BME280;65745;50.278;18.192;2023-03-01T02:38:10;100956.15;;;-2.82;67.75
76794;BME280;65745;50.278;18.192;2023-03-01T02:40:42;100960.73;;;-2.76;67.90
76794;BME280;65745;50.278;18.192;2023-03-01T02:43:15;100962.13;;;-2.66;67.45
76794;BME280;65745;50.278;18.192;2023-03-01T02:45:51;100962.23;;;-2.63;66.95
76794;BME280;65745;50.278;18.192;2023-03-01T02:48:24;100957.46;;;-2.63;66.93
76794;BME280;65745;50.278;18.192;2023-03-01T02:51:05;100954.90;;;-2.64;67.47
76794;BME280;65745;50.278;18.192;2023-03-01T02:53:48;100961.48;;;-2.68;66.97
76794;BME280;65745;50.278;18.192;2023-03-01T02:56:22;100959.00;;;-2.69;66.89
76794;BME280;65745;50.278;18.192;2023-03-01T02:58:55;100959.23;;;-2.76;67.03
76794;BME280;65745;50.278;18.192;2023-03-01T03:01:32;100956.68;;;-2.87;68.28
76794;BME280;65745;50.278;18.192;2023-03-01T03:04:12;100952.77;;;-2.99;68.61
76794;BME280;65745;50.278;18.192;2023-03-01T03:06:50;100952.85;;;-2.96;67.49
76794;BME280;65745;50.278;18.192;2023-03-01T03:09:23;100958.91;;;-3.02;67.62
76794;BME280;65745;50.278;18.192;2023-03-01T03:11:55;100958.30;;;-3.05;67.27
76794;BME280;65745;50.278;18.192;2023-03-01T03:14:28;100958.89;;;-3.08;67.12
76794;BME280;65745;50.278;18.192;2023-03-01T03:17:00;100959.86;;;-3.17;67.44
76794;BME280;65745;50.278;18.192;2023-03-01T03:19:37;100959.21;;;-3.23;67.38
76794;BME280;65745;50.278;18.192;2023-03-01T03:22:09;100962.61;;;-3.20;67.91
76794;BME280;65745;50.278;18.192;2023-03-01T03:24:41;100962.33;;;-3.14;68.30
76794;BME280;65745;50.278;18.192;2023-03-01T03:27:14;100963.87;;;-3.10;68.70
76794;BME280;65745;50.278;18.192;2023-03-01T03:29:46;100955.34;;;-3.06;68.94
76794;BME280;65745;50.278;18.192;2023-03-01T03:32:18;100954.81;;;-2.97;68.39
76794;BME280;65745;50.278;18.192;2023-03-01T03:34:50;100955.23;;;-2.94;67.96
76794;BME280;65745;50.278;18.192;2023-03-01T03:37:22;100956.61;;;-2.92;67.75
76794;BME280;65745;50.278;18.192;2023-03-01T03:40:13;100953.21;;;-2.90;67.59
76794;BME280;65745;50.278;18.192;2023-03-01T03:42:46;100950.38;;;-2.94;67.73
76794;BME280;65745;50.278;18.192;2023-03-01T03:45:19;100951.61;;;-3.08;67.80
76794;BME280;65745;50.278;18.192;2023-03-01T03:47:51;100953.23;;;-3.09;67.86
76794;BME280;65745;50.278;18.192;2023-03-01T03:50:24;100953.77;;;-3.16;68.24
76794;BME280;65745;50.278;18.192;2023-03-01T03:52:56;100952.08;;;-3.28;68.32
76794;BME280;65745;50.278;18.192;2023-03-01T03:55:28;100944.83;;;-3.34;68.07
76794;BME280;65745;50.278;18.192;2023-03-01T03:58:02;100943.86;;;-3.38;68.19
76794;BME280;65745;50.278;18.192;2023-03-01T04:00:40;100945.96;;;-3.38;68.25
76794;BME280;65745;50.278;18.192;2023-03-01T04:03:13;100944.20;;;-3.41;69.24
76794;BME280;65745;50.278;18.192;2023-03-01T04:05:50;100939.80;;;-3.47;68.78
76794;BME280;65745;50.278;18.192;2023-03-01T04:08:24;100943.00;;;-3.49;69.11
76794;BME280;65745;50.278;18.192;2023-03-01T04:11:01;100936.04;;;-3.51;68.53
76794;BME280;65745;50.278;18.192;2023-03-01T04:13:56;100939.35;;;-3.49;69.18
76794;BME280;65745;50.278;18.192;2023-03-01T04:16:29;100944.09;;;-3.44;69.60
76794;BME280;65745;50.278;18.192;2023-03-01T04:19:02;100947.37;;;-3.40;69.91
76794;BME280;65745;50.278;18.192;2023-03-01T04:21:37;100949.30;;;-3.30;69.78
76794;BME280;65745;50.278;18.192;2023-03-01T04:24:09;100949.27;;;-3.17;69.40
76794;BME280;65745;50.278;18.192;2023-03-01T04:26:41;100945.29;;;-3.09;68.77
76794;BME280;65745;50.278;18.192;2023-03-01T04:29:14;100942.03;;;-3.02;68.83
76794;BME280;65745;50.278;18.192;2023-03-01T04:31:46;100941.14;;;-3.06;68.55
76794;BME280;65745;50.278;18.192;2023-03-01T04:34:20;100940.64;;;-3.10;68.59
76794;BME280;65745;50.278;18.192;2023-03-01T04:36:54;100945.35;;;-3.12;67.79
76794;BME280;65745;50.278;18.192;2023-03-01T04:39:27;100941.55;;;-3.13;68.11
76794;BME280;65745;50.278;18.192;2023-03-01T04:41:59;100942.45;;;-3.20;68.54
76794;BME280;65745;50.278;18.192;2023-03-01T04:44:31;100944.52;;;-3.27;68.35
76794;BME280;65745;50.278;18.192;2023-03-01T04:47:04;100942.84;;;-3.30;68.40
76794;BME280;65745;50.278;18.192;2023-03-01T04:49:36;100946.04;;;-3.32;68.82
76794;BME280;65745;50.278;18.192;2023-03-01T04:52:09;100939.34;;;-3.39;68.76
76794;BME280;65745;50.278;18.192;2023-03-01T04:54:41;100942.80;;;-3.41;68.88
76794;BME280;65745;50.278;18.192;2023-03-01T04:57:14;100945.16;;;-3.44;68.66
76794;BME280;65745;50.278;18.192;2023-03-01T04:59:46;100946.21;;;-3.50;68.74
76794;BME280;65745;50.278;18.192;2023-03-01T05:02:18;100936.89;;;-3.58;68.95
76794;BME280;65745;50.278;18.192;2023-03-01T05:04:50;100943.98;;;-3.72;70.61
76794;BME280;65745;50.278;18.192;2023-03-01T05:07:22;100945.06;;;-3.75;69.55
76794;BME280;65745;50.278;18.192;2023-03-01T05:09:55;100938.23;;;-3.69;69.60
76794;BME280;65745;50.278;18.192;2023-03-01T05:12:27;100938.73;;;-3.64;69.75
76794;BME280;65745;50.278;18.192;2023-03-01T05:14:59;100942.27;;;-3.51;69.71
76794;BME280;65745;50.278;18.192;2023-03-01T05:17:37;100939.41;;;-3.42;69.35
76794;BME280;65745;50.278;18.192;2023-03-01T05:20:12;100935.06;;;-3.44;69.13
76794;BME280;65745;50.278;18.192;2023-03-01T05:22:44;100928.96;;;-3.53;69.28
76794;BME280;65745;50.278;18.192;2023-03-01T05:25:17;100925.87;;;-3.63;69.41
76794;BME280;65745;50.278;18.192;2023-03-01T05:27:50;100928.55;;;-3.65;69.35
76794;BME280;65745;50.278;18.192;2023-03-01T05:30:22;100931.61;;;-3.70;72.05
76794;BME280;65745;50.278;18.192;2023-03-01T05:32:55;100928.70;;;-3.72;70.52
76794;BME280;65745;50.278;18.192;2023-03-01T05:35:27;100925.88;;;-3.64;69.56
76794;BME280;65745;50.278;18.192;2023-03-01T05:38:00;100930.12;;;-3.64;69.63
76794;BME280;65745;50.278;18.192;2023-03-01T05:40:34;100927.98;;;-3.60;69.26
76794;BME280;65745;50.278;18.192;2023-03-01T05:43:07;100932.20;;;-3.58;69.47
76794;BME280;65745;50.278;18.192;2023-03-01T05:45:41;100938.45;;;-3.61;69.21
76794;BME280;65745;50.278;18.192;2023-03-01T05:48:14;100938.95;;;-3.60;68.74
76794;BME280;65745;50.278;18.192;2023-03-01T05:50:46;100937.03;;;-3.59;69.45
76794;BME280;65745;50.278;18.192;2023-03-01T05:53:19;100939.17;;;-3.61;71.69
76794;BME280;65745;50.278;18.192;2023-03-01T05:55:52;100940.61;;;-3.58;70.51
76794;BME280;65745;50.278;18.192;2023-03-01T05:58:25;100937.98;;;-3.52;70.20
76794;BME280;65745;50.278;18.192;2023-03-01T06:00:57;100937.71;;;-3.40;70.51
76794;BME280;65745;50.278;18.192;2023-03-01T06:03:30;100932.25;;;-3.24;70.96
76794;BME280;65745;50.278;18.192;2023-03-01T06:06:02;100928.62;;;-3.11;71.36
76794;BME280;65745;50.278;18.192;2023-03-01T06:08:35;100936.32;;;-3.11;71.54
76794;BME280;65745;50.278;18.192;2023-03-01T06:11:07;100935.53;;;-3.05;71.25
76794;BME280;65745;50.278;18.192;2023-03-01T06:13:40;100936.83;;;-2.98;71.03
76794;BME280;65745;50.278;18.192;2023-03-01T06:16:13;100936.40;;;-2.97;71.77
76794;BME280;65745;50.278;18.192;2023-03-01T06:18:46;100936.02;;;-2.96;70.59
76794;BME280;65745;50.278;18.192;2023-03-01T06:21:18;100943.55;;;-2.92;71.25
76794;BME280;65745;50.278;18.192;2023-03-01T06:23:50;100946.98;;;-2.92;70.94
76794;BME280;65745;50.278;18.192;2023-03-01T06:26:22;100954.25;;;-2.90;72.60
76794;BME280;65745;50.278;18.192;2023-03-01T06:28:54;100958.29;;;-2.90;73.14
76794;BME280;65745;50.278;18.192;2023-03-01T06:31:27;100957.88;;;-2.76;71.24
76794;BME280;65745;50.278;18.192;2023-03-01T06:33:59;100958.52;;;-2.57;70.61
76794;BME280;65745;50.278;18.192;2023-03-01T06:36:31;100955.14;;;-2.44;70.33
76794;BME280;65745;50.278;18.192;2023-03-01T06:39:04;100952.91;;;-2.35;71.25
76794;BME280;65745;50.278;18.192;2023-03-01T06:41:36;100949.70;;;-2.27;70.90
76794;BME280;65745;50.278;18.192;2023-03-01T06:44:09;100953.45;;;-2.15;70.29
76794;BME280;65745;50.278;18.192;2023-03-01T06:46:41;100958.48;;;-2.04;70.28
76794;BME280;65745;50.278;18.192;2023-03-01T06:49:13;100954.39;;;-1.93;70.06
76794;BME280;65745;50.278;18.192;2023-03-01T06:51:47;100950.80;;;-1.82;69.91
76794;BME280;65745;50.278;18.192;2023-03-01T06:54:19;100949.73;;;-1.64;69.95
76794;BME280;65745;50.278;18.192;2023-03-01T06:56:53;100955.16;;;-1.46;70.25
76794;BME280;65745;50.278;18.192;2023-03-01T06:59:25;100955.55;;;-1.23;70.77
76794;BME280;65745;50.278;18.192;2023-03-01T07:01:58;100957.27;;;-0.97;70.18
76794;BME280;65745;50.278;18.192;2023-03-01T07:04:31;100957.27;;;-0.72;69.71
76794;BME280;65745;50.278;18.192;2023-03-01T07:07:04;100949.39;;;-0.59;69.22
76794;BME280;65745;50.278;18.192;2023-03-01T07:09:37;100950.98;;;-0.45;69.04
76794;BME280;65745;50.278;18.192;2023-03-01T07:12:09;100948.35;;;-0.38;69.02
76794;BME280;65745;50.278;18.192;2023-03-01T07:14:43;100944.07;;;-0.30;68.93
76794;BME280;65745;50.278;18.192;2023-03-01T07:17:16;100944.23;;;-0.28;69.18
76794;BME280;65745;50.278;18.192;2023-03-01T07:19:58;100940.17;;;-0.22;69.13
76794;BME280;65745;50.278;18.192;2023-03-01T07:22:30;100938.56;;;-0.12;68.92
76794;BME280;65745;50.278;18.192;2023-03-01T07:25:02;100940.14;;;-0.01;68.64
76794;BME280;65745;50.278;18.192;2023-03-01T07:27:35;100934.71;;;0.06;68.82
76794;BME280;65745;50.278;18.192;2023-03-01T07:30:09;100934.28;;;0.20;68.75
76794;BME280;65745;50.278;18.192;2023-03-01T07:32:42;100935.36;;;0.23;69.13
76794;BME280;65745;50.278;18.192;2023-03-01T07:35:18;100933.77;;;0.32;68.71
76794;BME280;65745;50.278;18.192;2023-03-01T07:37:50;100935.92;;;0.45;68.66
76794;BME280;65745;50.278;18.192;2023-03-01T07:40:23;100933.16;;;0.65;68.89
76794;BME280;65745;50.278;18.192;2023-03-01T07:42:58;100936.02;;;0.87;69.23
76794;BME280;65745;50.278;18.192;2023-03-01T07:45:32;100939.63;;;1.12;69.11
76794;BME280;65745;50.278;18.192;2023-03-01T07:48:05;100932.56;;;1.39;68.50
76794;BME280;65745;50.278;18.192;2023-03-01T07:50:48;100921.30;;;1.47;68.11
76794;BME280;65745;50.278;18.192;2023-03-01T07:53:30;100912.88;;;1.60;67.53
76794;BME280;65745;50.278;18.192;2023-03-01T07:56:09;100911.73;;;1.77;67.14
76794;BME280;65745;50.278;18.192;2023-03-01T07:58:40;100904.02;;;1.86;66.52
76794;BME280;65745;50.278;18.192;2023-03-01T08:01:17;100896.60;;;1.94;66.42
76794;BME280;65745;50.278;18.192;2023-03-01T08:03:50;100898.00;;;2.06;65.66
76794;BME280;65745;50.278;18.192;2023-03-01T08:06:24;100899.33;;;2.15;65.74
76794;BME280;65745;50.278;18.192;2023-03-01T08:08:56;100903.03;;;2.27;65.68
76794;BME280;65745;50.278;18.192;2023-03-01T08:11:30;100897.12;;;2.38;65.70
76794;BME280;65745;50.278;18.192;2023-03-01T08:14:03;100896.94;;;2.45;65.55
76794;BME280;65745;50.278;18.192;2023-03-01T08:16:37;100895.54;;;2.47;65.11
76794;BME280;65745;50.278;18.192;2023-03-01T08:19:11;100895.12;;;2.53;64.50
76794;BME280;65745;50.278;18.192;2023-03-01T08:21:44;100892.33;;;2.60;64.50
76794;BME280;65745;50.278;18.192;2023-03-01T08:24:16;100891.48;;;2.70;64.47
76794;BME280;65745;50.278;18.192;2023-03-01T08:26:49;100882.94;;;2.82;64.39
76794;BME280;65745;50.278;18.192;2023-03-01T08:29:21;100880.94;;;2.93;64.39
76794;BME280;65745;50.278;18.192;2023-03-01T08:31:55;100881.64;;;2.98;63.64
76794;BME280;65745;50.278;18.192;2023-03-01T08:34:28;100890.20;;;3.07;64.01
76794;BME280;65745;50.278;18.192;2023-03-01T08:37:02;100889.19;;;3.15;63.98
76794;BME280;65745;50.278;18.192;2023-03-01T08:39:37;100884.08;;;3.20;63.64
76794;BME280;65745;50.278;18.192;2023-03-01T08:42:10;100885.66;;;3.31;63.29
76794;BME280;65745;50.278;18.192;2023-03-01T08:44:42;100884.31;;;3.42;63.15
76794;BME280;65745;50.278;18.192;2023-03-01T08:47:18;100888.20;;;3.55;63.22
76794;BME280;65745;50.278;18.192;2023-03-01T08:49:52;100887.02;;;3.63;63.37
76794;BME280;65745;50.278;18.192;2023-03-01T08:52:25;100884.52;;;3.77;63.41
76794;BME280;65745;50.278;18.192;2023-03-01T08:55:00;100883.42;;;3.95;63.07
76794;BME280;65745;50.278;18.192;2023-03-01T08:57:33;100882.60;;;4.15;62.48
76794;BME280;65745;50.278;18.192;2023-03-01T09:00:08;100882.96;;;4.29;62.17
76794;BME280;65745;50.278;18.192;2023-03-01T09:02:50;100880.26;;;4.41;61.79
76794;BME280;65745;50.278;18.192;2023-03-01T09:05:40;100873.17;;;4.56;62.14
76794;BME280;65745;50.278;18.192;2023-03-01T09:08:13;100868.74;;;4.68;61.37
76794;BME280;65745;50.278;18.192;2023-03-01T09:10:46;100869.89;;;4.76;61.10
76794;BME280;65745;50.278;18.192;2023-03-01T09:13:20;100870.02;;;4.87;61.12
76794;BME280;65745;50.278;18.192;2023-03-01T09:15:58;100867.85;;;5.03;61.17
76794;BME280;65745;50.278;18.192;2023-03-01T09:18:31;100863.80;;;5.15;60.52
76794;BME280;65745;50.278;18.192;2023-03-01T09:21:12;100860.63;;;5.23;59.92
76794;BME280;65745;50.278;18.192;2023-03-01T09:24:14;100853.73;;;5.21;58.77
76794;BME280;65745;50.278;18.192;2023-03-01T09:26:48;100854.77;;;5.04;58.73
76794;BME280;65745;50.278;18.192;2023-03-01T09:29:22;100854.61;;;4.98;58.98
76794;BME280;65745;50.278;18.192;2023-03-01T09:31:56;100855.27;;;5.12;59.32
76794;BME280;65745;50.278;18.192;2023-03-01T09:34:28;100860.10;;;5.20;57.93
76794;BME280;65745;50.278;18.192;2023-03-01T09:37:02;100864.45;;;5.30;58.12
76794;BME280;65745;50.278;18.192;2023-03-01T09:39:35;100864.48;;;5.45;57.92
76794;BME280;65745;50.278;18.192;2023-03-01T09:42:14;100865.19;;;5.61;57.59
76794;BME280;65745;50.278;18.192;2023-03-01T09:44:51;100860.69;;;5.67;56.33
76794;BME280;65745;50.278;18.192;2023-03-01T09:47:26;100862.80;;;5.74;56.71
76794;BME280;65745;50.278;18.192;2023-03-01T09:50:04;100862.18;;;5.81;55.58
76794;BME280;65745;50.278;18.192;2023-03-01T09:52:42;100863.55;;;5.96;56.40
76794;BME280;65745;50.278;18.192;2023-03-01T09:55:17;100858.33;;;6.08;55.96
76794;BME280;65745;50.278;18.192;2023-03-01T09:58:02;100856.67;;;6.09;55.28
76794;BME280;65745;50.278;18.192;2023-03-01T10:00:43;100854.98;;;6.25;55.79
76794;BME280;65745;50.278;18.192;2023-03-01T10:03:20;100849.42;;;6.50;53.90
76794;BME280;65745;50.278;18.192;2023-03-01T10:06:01;100854.17;;;6.86;53.25
76794;BME280;65745;50.278;18.192;2023-03-01T10:08:41;100850.05;;;7.42;52.80
76794;BME280;65745;50.278;18.192;2023-03-01T10:11:25;100847.34;;;7.94;52.09
76794;BME280;65745;50.278;18.192;2023-03-01T10:14:25;100851.07;;;8.15;51.95
76794;BME280;65745;50.278;18.192;2023-03-01T10:17:03;100840.77;;;7.96;49.46
76794;BME280;65745;50.278;18.192;2023-03-01T10:19:42;100838.67;;;7.88;50.35
76794;BME280;65745;50.278;18.192;2023-03-01T10:22:18;100836.35;;;7.90;50.85
76794;BME280;65745;50.278;18.192;2023-03-01T10:24:53;100836.52;;;7.97;50.09
76794;BME280;65745;50.278;18.192;2023-03-01T10:27:29;100836.44;;;7.99;51.68
76794;BME280;65745;50.278;18.192;2023-03-01T10:30:19;100828.86;;;7.95;50.86
76794;BME280;65745;50.278;18.192;2023-03-01T10:32:54;100830.66;;;7.89;50.96
76794;BME280;65745;50.278;18.192;2023-03-01T10:35:31;100825.36;;;7.93;49.64
76794;BME280;65745;50.278;18.192;2023-03-01T10:38:04;100823.20;;;7.87;49.89
76794;BME280;65745;50.278;18.192;2023-03-01T10:40:49;100821.33;;;7.83;49.98
76794;BME280;65745;50.278;18.192;2023-03-01T10:43:27;100821.06;;;7.82;50.79
76794;BME280;65745;50.278;18.192;2023-03-01T10:46:01;100821.20;;;7.81;50.34
76794;BME280;65745;50.278;18.192;2023-03-01T10:48:34;100816.73;;;7.81;50.94
76794;BME280;65745;50.278;18.192;2023-03-01T10:51:17;100809.91;;;7.85;51.59
76794;BME280;65745;50.278;18.192;2023-03-01T10:53:52;100799.38;;;7.91;50.62
76794;BME280;65745;50.278;18.192;2023-03-01T10:56:25;100797.03;;;8.00;51.57
76794;BME280;65745;50.278;18.192;2023-03-01T10:59:02;100799.56;;;8.15;50.67
76794;BME280;65745;50.278;18.192;2023-03-01T11:01:35;100796.73;;;8.28;50.07
76794;BME280;65745;50.278;18.192;2023-03-01T11:04:14;100796.04;;;8.31;50.02
76794;BME280;65745;50.278;18.192;2023-03-01T11:06:59;100789.14;;;8.39;49.38
76794;BME280;65745;50.278;18.192;2023-03-01T11:09:34;100778.16;;;8.35;47.70
76794;BME280;65745;50.278;18.192;2023-03-01T11:12:16;100774.45;;;8.29;49.04
76794;BME280;65745;50.278;18.192;2023-03-01T11:14:55;100775.05;;;8.38;48.80
76794;BME280;65745;50.278;18.192;2023-03-01T11:17:31;100771.44;;;8.50;48.34
76794;BME280;65745;50.278;18.192;2023-03-01T11:20:29;100771.38;;;8.94;47.98
76794;BME280;65745;50.278;18.192;2023-03-01T11:23:09;100767.64;;;9.66;44.28
76794;BME280;65745;50.278;18.192;2023-03-01T11:25:45;100762.53;;;10.43;44.61
76794;BME280;65745;50.278;18.192;2023-03-01T11:28:22;100755.70;;;10.97;42.91
76794;BME280;65745;50.278;18.192;2023-03-01T11:31:00;100749.98;;;11.45;40.79
76794;BME280;65745;50.278;18.192;2023-03-01T11:33:43;100749.16;;;10.97;42.71
76794;BME280;65745;50.278;18.192;2023-03-01T11:36:26;100753.02;;;10.57;43.23
76794;BME280;65745;50.278;18.192;2023-03-01T11:39:12;100749.77;;;10.08;43.50
76794;BME280;65745;50.278;18.192;2023-03-01T11:42:00;100751.77;;;9.55;44.47
76794;BME280;65745;50.278;18.192;2023-03-01T11:44:52;100751.98;;;9.21;46.19
76794;BME280;65745;50.278;18.192;2023-03-01T11:47:37;100749.50;;;9.14;46.31
76794;BME280;65745;50.278;18.192;2023-03-01T11:50:28;100750.71;;;9.10;46.37
76794;BME280;65745;50.278;18.192;2023-03-01T11:53:16;100748.23;;;9.08;46.66
76794;BME280;65745;50.278;18.192;2023-03-01T11:56:03;100745.80;;;9.12;46.77
76794;BME280;65745;50.278;18.192;2023-03-01T11:59:06;100745.33;;;9.17;46.39
76794;BME280;65745;50.278;18.192;2023-03-01T12:01:46;100737.35;;;9.16;45.86
76794;BME280;65745;50.278;18.192;2023-03-01T12:04:41;100735.00;;;9.13;46.25
76794;BME280;65745;50.278;18.192;2023-03-01T12:07:30;100729.97;;;9.12;46.12
76794;BME280;65745;50.278;18.192;2023-03-01T12:10:29;100726.36;;;9.07;46.50
76794;BME280;65745;50.278;18.192;2023-03-01T12:13:41;100719.77;;;9.05;45.25
76794;BME280;65745;50.278;18.192;2023-03-01T12:16:28;100722.24;;;9.07;46.35
76794;BME280;65745;50.278;18.192;2023-03-01T12:19:24;100719.70;;;9.13;45.84
76794;BME280;65745;50.278;18.192;2023-03-01T12:22:20;100720.36;;;9.21;46.02
76794;BME280;65745;50.278;18.192;2023-03-01T12:25:18;100721.60;;;9.22;45.64
76794;BME280;65745;50.278;18.192;2023-03-01T12:28:21;100715.59;;;9.21;45.79
76794;BME280;65745;50.278;18.192;2023-03-01T12:31:29;100713.52;;;9.22;45.78
76794;BME280;65745;50.278;18.192;2023-03-01T12:34:16;100705.86;;;9.37;45.99
76794;BME280;65745;50.278;18.192;2023-03-01T12:37:11;100707.26;;;9.47;45.28
76794;BME280;65745;50.278;18.192;2023-03-01T12:39:58;100706.10;;;9.48;45.34
76794;BME280;65745;50.278;18.192;2023-03-01T12:42:43;100703.27;;;9.55;45.42
76794;BME280;65745;50.278;18.192;2023-03-01T12:45:57;100697.56;;;9.64;45.42
76794;BME280;65745;50.278;18.192;2023-03-01T12:48:50;100685.73;;;9.74;44.60
76794;BME280;65745;50.278;18.192;2023-03-01T12:51:28;100681.66;;;10.00;44.76
76794;BME280;65745;50.278;18.192;2023-03-01T12:54:10;100683.05;;;10.72;45.03
76794;BME280;65745;50.278;18.192;2023-03-01T12:56:45;100676.63;;;11.68;43.57
76794;BME280;65745;50.278;18.192;2023-03-01T12:59:31;100672.98;;;11.91;42.11
76794;BME280;65745;50.278;18.192;2023-03-01T13:02:19;100667.80;;;11.73;42.30
76794;BME280;65745;50.278;18.192;2023-03-01T13:05:05;100666.77;;;11.68;43.21
76794;BME280;65745;50.278;18.192;2023-03-01T13:07:44;100663.99;;;11.61;42.58
76794;BME280;65745;50.278;18.192;2023-03-01T13:10:25;100660.30;;;11.46;41.95
76794;BME280;65745;50.278;18.192;2023-03-01T13:13:19;100658.78;;;11.35;41.34
76794;BME280;65745;50.278;18.192;2023-03-01T13:15:54;100657.13;;;11.26;41.93
76794;BME280;65745;50.278;18.192;2023-03-01T13:18:34;100651.73;;;11.13;41.56
76794;BME280;65745;50.278;18.192;2023-03-01T13:21:08;100648.44;;;11.36;42.77
76794;BME280;65745;50.278;18.192;2023-03-01T13:23:41;100648.29;;;12.05;40.15
76794;BME280;65745;50.278;18.192;2023-03-01T13:26:20;100638.65;;;13.58;38.16
76794;BME280;65745;50.278;18.192;2023-03-01T13:28:55;100640.18;;;15.38;34.03
76794;BME280;65745;50.278;18.192;2023-03-01T13:32:00;100640.56;;;17.48;30.79